createdAt,value
2018-04-07T00:00:13.036Z,15.50
2018-04-07T00:02:41.224Z,22.00
2018-04-07T00:05:09.416Z,11.60
2018-04-07T00:07:36.838Z,12.30
2018-04-07T00:10:04.259Z,13.90
2018-04-07T00:12:31.699Z,21.73
2018-04-07T00:14:59.888Z,11.93
2018-04-07T00:17:28.081Z,13.23
2018-04-07T00:19:57.174Z,16.73
2018-04-07T00:22:25.342Z,13.57
2018-04-07T00:24:54.263Z,18.87
2018-04-07T00:27:22.462Z,15.50
2018-04-07T00:29:50.714Z,16.57
2018-04-07T00:32:18.119Z,10.67
2018-04-07T00:34:46.294Z,15.03
2018-04-07T00:37:14.477Z,21.17
2018-04-07T00:39:42.662Z,13.53
2018-04-07T00:42:10.838Z,21.23
2018-04-07T00:44:38.266Z,18.23
2018-04-07T00:47:05.682Z,13.33
2018-04-07T00:49:33.878Z,12.57
2018-04-07T00:52:02.075Z,19.33
2018-04-07T00:54:29.532Z,20.70
2018-04-07T00:56:58.544Z,21.75
2018-04-07T00:59:25.968Z,16.90
2018-04-07T01:01:53.374Z,12.63
2018-04-07T01:04:21.562Z,16.43
2018-04-07T01:06:49.734Z,9.33
2018-04-07T01:09:17.931Z,11.63
2018-04-07T01:11:45.339Z,13.57
2018-04-07T01:14:12.774Z,9.83
2018-04-07T01:16:40.942Z,14.30
2018-04-07T01:19:09.166Z,14.60
2018-04-07T01:21:36.569Z,12.43
2018-04-07T01:24:03.986Z,9.87
2018-04-07T01:26:31.402Z,16.80
2018-04-07T01:28:58.842Z,12.27
2018-04-07T01:31:26.252Z,17.10
2018-04-07T01:33:53.678Z,20.70
2018-04-07T01:36:21.111Z,12.53
2018-04-07T01:38:49.349Z,14.93
2018-04-07T01:41:16.751Z,10.88
2018-04-07T01:43:44.207Z,17.13
2018-04-07T01:46:11.677Z,10.47
2018-04-07T01:48:39.097Z,11.07
2018-04-07T01:51:06.512Z,8.37
2018-04-07T01:53:33.938Z,10.60
2018-04-07T01:56:01.387Z,14.13
2018-04-07T01:58:28.843Z,13.70
2018-04-07T02:00:56.428Z,15.10
2018-04-07T02:03:23.848Z,11.83
2018-04-07T02:05:51.259Z,13.00
2018-04-07T02:08:18.758Z,17.10
2018-04-07T02:10:46.201Z,16.50
2018-04-07T02:13:14.380Z,11.23
2018-04-07T02:15:42.567Z,11.27
2018-04-07T02:18:10.747Z,9.20
2018-04-07T02:20:38.936Z,16.50
2018-04-07T02:23:07.123Z,10.90
2018-04-07T02:25:35.307Z,8.50
2018-04-07T02:28:03.497Z,14.47
2018-04-07T02:30:31.691Z,16.90
2018-04-07T02:33:00.382Z,17.92
2018-04-07T02:35:27.734Z,11.90
2018-04-07T02:37:55.919Z,15.67
2018-04-07T02:40:23.384Z,15.63
2018-04-07T02:42:50.770Z,18.80
2018-04-07T02:45:18.949Z,17.07
2018-04-07T02:47:47.142Z,15.10
2018-04-07T02:50:15.372Z,13.07
2018-04-07T02:52:42.780Z,14.80
2018-04-07T02:55:10.396Z,13.23
2018-04-07T02:57:37.819Z,10.97
2018-04-07T03:00:05.258Z,16.30
2018-04-07T03:02:32.662Z,13.03
2018-04-07T03:05:00.983Z,12.07
2018-04-07T03:07:28.413Z,12.53
2018-04-07T03:09:55.874Z,17.30
2018-04-07T03:12:23.328Z,15.13
2018-04-07T03:14:50.759Z,14.77
2018-04-07T03:17:18.166Z,17.80
2018-04-07T03:19:45.603Z,14.50
2018-04-07T03:22:13.041Z,15.10
2018-04-07T03:24:40.487Z,14.80
2018-04-07T03:27:07.891Z,19.17
2018-04-07T03:29:35.322Z,15.10
2018-04-07T03:32:03.498Z,21.33
2018-04-07T03:34:30.966Z,11.90
2018-04-07T03:36:58.389Z,17.17
2018-04-07T03:39:25.825Z,16.60
2018-04-07T03:41:54.012Z,14.13
2018-04-07T03:44:21.431Z,12.97
2018-04-07T03:46:48.851Z,23.08
2018-04-07T03:49:17.062Z,13.13
2018-04-07T03:51:45.228Z,13.20
2018-04-07T03:54:12.635Z,21.30
2018-04-07T03:56:40.062Z,16.37
2018-04-07T03:59:08.242Z,13.83
2018-04-07T04:01:36.436Z,16.83
2018-04-07T04:04:05.586Z,10.80
2018-04-07T04:06:32.999Z,14.70
2018-04-07T04:09:01.353Z,14.40
2018-04-07T04:11:28.802Z,21.30
2018-04-07T04:13:56.218Z,22.30
2018-04-07T04:16:23.638Z,13.40
2018-04-07T04:18:51.050Z,21.90
2018-04-07T04:21:19.241Z,13.20
2018-04-07T04:23:46.670Z,16.37
2018-04-07T04:26:14.087Z,16.60
2018-04-07T04:28:41.508Z,16.53
2018-04-07T04:31:08.926Z,12.70
2018-04-07T04:33:37.114Z,13.60
2018-04-07T04:36:05.309Z,18.67
2018-04-07T04:38:32.715Z,22.57
2018-04-07T04:41:00.155Z,21.13
2018-04-07T04:43:28.334Z,21.00
2018-04-07T04:45:55.751Z,19.57
2018-04-07T04:48:23.186Z,11.60
2018-04-07T04:50:50.600Z,15.23
2018-04-07T04:53:18.016Z,13.50
2018-04-07T04:55:45.436Z,19.42
2018-04-07T04:58:12.867Z,17.30
2018-04-07T05:00:40.266Z,17.60
2018-04-07T05:03:07.678Z,19.60
2018-04-07T05:05:35.165Z,15.13
2018-04-07T05:08:02.594Z,13.27
2018-04-07T05:10:30.023Z,19.50
2018-04-07T05:12:57.446Z,23.20
2018-04-07T05:15:25.634Z,20.83
2018-04-07T05:17:53.825Z,17.03
2018-04-07T05:20:21.266Z,11.90
2018-04-07T05:22:48.687Z,25.92
2018-04-07T05:25:16.128Z,21.50
2018-04-07T05:27:44.297Z,23.57
2018-04-07T05:30:12.489Z,17.63
2018-04-07T05:32:40.683Z,15.87
2018-04-07T05:35:08.879Z,13.40
2018-04-07T05:37:36.295Z,20.23
2018-04-07T05:40:03.740Z,15.83
2018-04-07T05:42:31.225Z,19.47
2018-04-07T05:44:58.661Z,19.17
2018-04-07T05:47:26.097Z,13.87
2018-04-07T05:49:53.510Z,17.80
2018-04-07T05:52:20.934Z,16.97
2018-04-07T05:54:49.120Z,14.67
2018-04-07T05:57:17.352Z,15.63
2018-04-07T05:59:44.805Z,20.17
2018-04-07T06:02:12.231Z,14.25
2018-04-07T06:04:39.660Z,12.33
2018-04-07T06:07:07.085Z,17.00
2018-04-07T06:09:35.284Z,19.73
2018-04-07T06:12:03.297Z,13.07
2018-04-07T06:14:30.723Z,12.23
2018-04-07T06:16:58.922Z,13.10
2018-04-07T06:19:26.342Z,15.43
2018-04-07T06:21:53.762Z,19.20
2018-04-07T06:24:21.236Z,8.90
2018-04-07T06:26:48.655Z,13.20
2018-04-07T06:29:16.091Z,15.03
2018-04-07T06:31:43.519Z,22.83
2018-04-07T06:34:11.709Z,13.87
2018-04-07T06:36:39.902Z,12.30
2018-04-07T06:39:08.075Z,13.70
2018-04-07T06:41:36.245Z,15.87
2018-04-07T06:44:04.439Z,15.00
2018-04-07T06:46:33.550Z,14.73
2018-04-07T06:49:01.741Z,16.90
2018-04-07T06:51:29.930Z,15.57
2018-04-07T06:53:58.122Z,18.80
2018-04-07T06:56:26.294Z,15.80
2018-04-07T06:58:54.471Z,18.43
2018-04-07T07:01:21.908Z,17.63
2018-04-07T07:03:49.318Z,17.97
2018-04-07T07:06:17.539Z,13.37
2018-04-07T07:08:44.984Z,11.87
2018-04-07T07:11:12.380Z,8.93
2018-04-07T07:13:39.800Z,14.83
2018-04-07T07:16:07.224Z,15.37
2018-04-07T07:18:34.638Z,14.83
2018-04-07T07:21:02.866Z,15.90
2018-04-07T07:23:31.040Z,17.67
2018-04-07T07:25:58.469Z,15.00
2018-04-07T07:28:25.916Z,12.73
2018-04-07T07:30:53.342Z,13.10
2018-04-07T07:33:20.755Z,18.53
2018-04-07T07:35:48.182Z,12.57
2018-04-07T07:38:15.620Z,13.63
2018-04-07T07:40:43.802Z,15.93
2018-04-07T07:43:11.215Z,20.63
2018-04-07T07:45:38.670Z,18.63
2018-04-07T07:48:06.086Z,13.13
2018-04-07T07:50:34.422Z,13.80
2018-04-07T07:53:02.600Z,14.70
2018-04-07T07:55:30.793Z,12.70
2018-04-07T07:57:58.242Z,18.73
2018-04-07T08:00:25.676Z,20.07
2018-04-07T08:02:53.092Z,15.67
2018-04-07T08:05:21.328Z,17.57
2018-04-07T08:07:49.494Z,16.50
2018-04-07T08:10:16.910Z,13.83
2018-04-07T08:12:44.329Z,14.47
2018-04-07T08:15:11.755Z,18.13
2018-04-07T08:17:39.949Z,21.37
2018-04-07T08:20:08.133Z,13.77
2018-04-07T08:22:36.331Z,12.83
2018-04-07T08:25:05.451Z,13.63
2018-04-07T08:27:32.867Z,10.77
2018-04-07T08:30:00.297Z,20.30
2018-04-07T08:32:27.717Z,13.17
2018-04-07T08:34:55.142Z,17.93
2018-04-07T08:37:22.625Z,19.13
2018-04-07T08:39:50.046Z,17.10
2018-04-07T08:42:18.234Z,16.87
2018-04-07T08:44:46.422Z,14.33
2018-04-07T08:47:13.862Z,13.70
2018-04-07T08:49:41.310Z,16.73
2018-04-07T08:52:08.723Z,16.57
2018-04-07T08:54:36.941Z,18.40
2018-04-07T08:57:05.277Z,13.77
2018-04-07T08:59:33.458Z,16.77
2018-04-07T09:02:00.897Z,14.37
2018-04-07T09:04:28.401Z,14.50
2018-04-07T09:06:55.754Z,14.70
2018-04-07T09:09:23.166Z,14.70
2018-04-07T09:11:50.589Z,17.70
2018-04-07T09:14:19.520Z,18.10
2018-04-07T09:16:47.729Z,16.70
2018-04-07T09:19:15.147Z,16.73
2018-04-07T09:21:42.598Z,15.90
2018-04-07T09:24:10.034Z,14.23
2018-04-07T09:26:37.522Z,18.83
2018-04-07T09:29:06.499Z,12.15
2018-04-07T09:31:35.603Z,13.47
2018-04-07T09:34:03.047Z,14.07
2018-04-07T09:36:31.293Z,13.10
2018-04-07T09:38:58.708Z,12.43
2018-04-07T09:41:26.906Z,13.67
2018-04-07T09:43:54.343Z,12.57
2018-04-07T09:46:21.770Z,14.93
2018-04-07T09:48:49.219Z,18.40
2018-04-07T09:51:17.422Z,14.13
2018-04-07T09:53:44.884Z,19.37
2018-04-07T09:56:12.333Z,33.37
2018-04-07T09:58:40.512Z,14.53
2018-04-07T10:01:08.732Z,15.40
2018-04-07T10:03:36.163Z,16.57
2018-04-07T10:06:03.586Z,15.57
2018-04-07T10:08:31.586Z,19.87
2018-04-07T10:10:59.003Z,16.40
2018-04-07T10:13:26.494Z,15.83
2018-04-07T10:15:53.918Z,14.40
2018-04-07T10:18:22.123Z,13.20
2018-04-07T10:20:50.602Z,14.70
2018-04-07T10:23:18.798Z,21.00
2018-04-07T10:25:46.990Z,14.23
2018-04-07T10:28:14.428Z,13.10
2018-04-07T10:30:41.838Z,13.20
2018-04-07T10:33:09.263Z,15.03
2018-04-07T10:35:36.730Z,15.77
2018-04-07T10:38:05.566Z,27.27
2018-04-07T10:40:34.071Z,13.35
2018-04-07T10:43:01.516Z,16.90
2018-04-07T10:45:29.880Z,20.33
2018-04-07T10:47:57.312Z,16.27
2018-04-07T10:50:24.726Z,16.08
2018-04-07T10:52:52.179Z,15.90
2018-04-07T10:55:19.616Z,15.23
2018-04-07T10:57:47.057Z,16.90
2018-04-07T11:00:15.264Z,19.03
2018-04-07T11:02:42.689Z,17.13
2018-04-07T11:05:10.093Z,17.27
2018-04-07T11:07:37.562Z,17.00
2018-04-07T11:10:04.972Z,13.67
2018-04-07T11:12:32.418Z,13.10
2018-04-07T11:14:59.844Z,18.23
2018-04-07T11:17:28.038Z,15.33
2018-04-07T11:19:56.259Z,18.17
2018-04-07T11:22:23.687Z,18.10
2018-04-07T11:24:51.872Z,15.03
2018-04-07T11:27:20.062Z,15.63
2018-04-07T11:29:48.366Z,19.07
2018-04-07T11:32:16.566Z,16.73
2018-04-07T11:34:43.986Z,19.30
2018-04-07T11:37:11.410Z,23.40
2018-04-07T11:39:38.843Z,15.33
2018-04-07T11:42:07.191Z,13.80
2018-04-07T11:44:34.626Z,14.63
2018-04-07T11:47:02.073Z,19.10
2018-04-07T11:49:30.321Z,15.10
2018-04-07T11:51:58.503Z,16.17
2018-04-07T11:54:25.932Z,15.87
2018-04-07T11:56:53.393Z,15.87
2018-04-07T11:59:20.816Z,18.30
2018-04-07T12:01:48.213Z,16.30
2018-04-07T12:04:15.627Z,13.77
2018-04-07T12:06:43.046Z,14.03
2018-04-07T12:09:10.538Z,18.73
2018-04-07T12:11:37.976Z,14.33
2018-04-07T12:14:05.371Z,15.80
2018-04-07T12:16:32.906Z,16.47
2018-04-07T12:19:01.133Z,16.47
2018-04-07T12:21:28.581Z,17.10
2018-04-07T12:23:56.800Z,15.33
2018-04-07T12:26:24.249Z,16.10
2018-04-07T12:28:51.718Z,18.57
2018-04-07T12:31:19.138Z,16.90
2018-04-07T12:33:46.589Z,14.57
2018-04-07T12:36:14.012Z,15.20
2018-04-07T12:38:42.198Z,16.33
2018-04-07T12:41:09.624Z,15.60
2018-04-07T12:43:37.069Z,18.43
2018-04-07T12:46:04.515Z,17.40
2018-04-07T12:48:32.093Z,15.77
2018-04-07T12:50:59.578Z,16.00
2018-04-07T12:53:27.000Z,15.90
2018-04-07T12:55:55.186Z,13.80
2018-04-07T12:58:23.386Z,12.93
2018-04-07T13:00:50.818Z,16.63
2018-04-07T13:03:18.237Z,12.93
2018-04-07T13:05:45.707Z,17.57
2018-04-07T13:08:13.138Z,26.50
2018-04-07T13:10:41.336Z,14.70
2018-04-07T13:13:09.516Z,14.03
2018-04-07T13:15:38.762Z,18.57
2018-04-07T13:18:06.187Z,13.00
2018-04-07T13:20:34.394Z,21.07
2018-04-07T13:23:02.569Z,15.63
2018-04-07T13:25:30.002Z,15.03
2018-04-07T13:27:57.446Z,20.93
2018-04-07T13:30:24.900Z,20.53
2018-04-07T13:32:52.335Z,21.87
2018-04-07T13:35:19.850Z,19.80
2018-04-07T13:37:47.275Z,17.80
2018-04-07T13:40:15.503Z,17.40
2018-04-07T13:42:42.984Z,24.13
2018-04-07T13:45:10.407Z,19.47
2018-04-07T13:47:39.535Z,20.60
2018-04-07T13:50:06.959Z,17.00
2018-04-07T13:52:34.486Z,18.13
2018-04-07T13:55:01.934Z,18.70
2018-04-07T13:57:30.141Z,16.63
2018-04-07T13:59:57.604Z,19.23
2018-04-07T14:02:25.779Z,23.10
2018-04-07T14:04:53.202Z,18.20
2018-04-07T14:07:20.618Z,21.43
2018-04-07T14:09:48.038Z,19.53
2018-04-07T14:12:15.450Z,19.73
2018-04-07T14:14:42.890Z,24.80
2018-04-07T14:17:11.846Z,17.83
2018-04-07T14:19:40.437Z,18.67
2018-04-07T14:22:07.911Z,19.57
2018-04-07T14:24:35.346Z,15.37
2018-04-07T14:27:02.850Z,17.20
2018-04-07T14:29:30.294Z,19.00
2018-04-07T14:31:57.754Z,17.27
2018-04-07T14:34:25.240Z,19.10
2018-04-07T14:36:53.431Z,15.20
2018-04-07T14:39:20.908Z,19.23
2018-04-07T14:41:48.314Z,16.83
2018-04-07T14:44:15.755Z,19.80
2018-04-07T14:46:43.212Z,14.23
2018-04-07T14:49:10.688Z,13.30
2018-04-07T14:51:38.145Z,20.20
2018-04-07T14:54:05.610Z,22.03
2018-04-07T14:56:33.020Z,24.63
2018-04-07T14:59:00.485Z,19.77
2018-04-07T15:01:27.886Z,28.50
2018-04-07T15:03:56.076Z,28.53
2018-04-07T15:06:23.578Z,28.13
2018-04-07T15:08:51.010Z,28.13
2018-04-07T15:11:19.207Z,30.57
2018-04-07T15:13:47.408Z,33.47
2018-04-07T15:16:15.758Z,24.50
2018-04-07T15:18:43.161Z,26.90
2018-04-07T15:21:11.421Z,25.53
2018-04-07T15:23:38.894Z,25.30
2018-04-07T15:26:07.103Z,28.60
2018-04-07T15:28:34.594Z,28.98
2018-04-07T15:31:02.002Z,27.43
2018-04-07T15:33:29.422Z,41.83
2018-04-07T15:35:56.853Z,31.30
2018-04-07T15:38:25.045Z,29.97
2018-04-07T15:40:53.234Z,26.80
2018-04-07T15:43:21.459Z,37.67
2018-04-07T15:45:48.865Z,31.17
2018-04-07T15:48:16.291Z,31.27
2018-04-07T15:50:43.719Z,41.20
2018-04-07T15:53:11.938Z,34.47
2018-04-07T15:55:41.095Z,35.17
2018-04-07T15:58:08.512Z,38.43
2018-04-07T16:00:35.935Z,36.50
2018-04-07T16:03:03.370Z,35.33
2018-04-07T16:05:30.797Z,39.93
2018-04-07T16:07:58.237Z,43.43
2018-04-07T16:10:25.655Z,33.80
2018-04-07T16:12:54.236Z,33.13
2018-04-07T16:15:21.660Z,32.23
2018-04-07T16:17:49.195Z,39.27
2018-04-07T16:20:16.627Z,33.17
2018-04-07T16:22:44.867Z,36.03
2018-04-07T16:25:12.323Z,35.00
2018-04-07T16:27:39.793Z,31.80
2018-04-07T16:30:07.354Z,42.93
2018-04-07T16:32:35.585Z,36.40
2018-04-07T16:35:03.015Z,32.00
2018-04-07T16:37:30.446Z,33.47
2018-04-07T16:39:58.779Z,32.13
2018-04-07T16:42:26.221Z,31.20
2018-04-07T16:44:53.800Z,40.87
2018-04-07T16:47:21.223Z,32.87
2018-04-07T16:49:48.735Z,38.27
2018-04-07T16:52:16.159Z,27.90
2018-04-07T16:54:43.580Z,35.13
2018-04-07T16:57:12.490Z,34.43
2018-04-07T16:59:39.909Z,33.07
2018-04-07T17:02:07.379Z,32.83
2018-04-07T17:04:34.932Z,31.70
2018-04-07T17:07:02.374Z,32.60
2018-04-07T17:09:30.439Z,35.05
2018-04-07T17:11:57.941Z,37.20
2018-04-07T17:14:26.113Z,34.73
2018-04-07T17:16:53.613Z,36.57
2018-04-07T17:19:21.080Z,31.70
2018-04-07T17:21:48.504Z,36.53
2018-04-07T17:24:15.932Z,37.93
2018-04-07T17:26:43.386Z,36.63
2018-04-07T17:29:10.856Z,36.37
2018-04-07T17:31:38.312Z,32.80
2018-04-07T17:34:05.791Z,46.73
2018-04-07T17:36:33.298Z,40.20
2018-04-07T17:39:00.978Z,34.77
2018-04-07T17:41:29.295Z,32.40
2018-04-07T17:43:56.746Z,33.60
2018-04-07T17:46:24.265Z,31.50
2018-04-07T17:48:51.734Z,33.80
2018-04-07T17:51:19.160Z,34.23
2018-04-07T17:53:46.611Z,33.10
2018-04-07T17:56:14.875Z,37.43
2018-04-07T17:58:43.434Z,34.00
2018-04-07T18:01:10.934Z,31.20
2018-04-07T18:03:38.401Z,41.60
2018-04-07T18:06:06.544Z,32.90
2018-04-07T18:08:33.984Z,37.80
2018-04-07T18:11:02.214Z,32.90
2018-04-07T18:13:29.691Z,33.90
2018-04-07T18:15:57.158Z,30.70
2018-04-07T18:18:24.588Z,40.87
2018-04-07T18:20:52.061Z,37.03
2018-04-07T18:23:20.251Z,39.37
2018-04-07T18:25:47.815Z,36.70
2018-04-07T18:28:15.251Z,42.10
2018-04-07T18:30:43.989Z,42.97
2018-04-07T18:33:11.411Z,35.47
2018-04-07T18:35:38.835Z,30.03
2018-04-07T18:38:06.253Z,36.03
2018-04-07T18:40:33.714Z,39.43
2018-04-07T18:43:01.232Z,30.93
2018-04-07T18:45:28.895Z,38.67
2018-04-07T18:47:56.331Z,35.47
2018-04-07T18:50:23.838Z,33.30
2018-04-07T18:52:51.307Z,42.27
2018-04-07T18:55:19.498Z,33.43
2018-04-07T18:57:46.918Z,33.40
2018-04-07T19:00:14.346Z,32.30
2018-04-07T19:02:41.779Z,38.60
2018-04-07T19:05:09.954Z,34.97
2018-04-07T19:07:38.145Z,37.10
2018-04-07T19:10:06.321Z,35.63
2018-04-07T19:12:33.763Z,35.20
2018-04-07T19:15:01.192Z,35.77
2018-04-07T19:17:28.639Z,35.00
2018-04-07T19:19:56.079Z,38.03
2018-04-07T19:22:23.544Z,39.60
2018-04-07T19:24:50.986Z,37.93
2018-04-07T19:27:18.416Z,40.53
2018-04-07T19:29:45.852Z,39.87
2018-04-07T19:32:14.302Z,35.33
2018-04-07T19:34:41.730Z,45.60
2018-04-07T19:37:09.222Z,34.70
2018-04-07T19:39:36.655Z,43.60
2018-04-07T19:42:04.184Z,47.27
2018-04-07T19:44:31.667Z,41.47
2018-04-07T19:46:59.097Z,43.23
2018-04-07T19:49:26.591Z,49.88
2018-04-07T19:51:54.068Z,41.00
2018-04-07T19:54:21.562Z,38.60
2018-04-07T19:56:48.979Z,44.03
2018-04-07T19:59:16.402Z,40.17
2018-04-07T20:01:44.778Z,39.80
2018-04-07T20:04:12.215Z,41.90
2018-04-07T20:06:39.649Z,37.07
2018-04-07T20:09:07.127Z,35.07
2018-04-07T20:11:35.374Z,35.60
2018-04-07T20:14:02.847Z,42.00
2018-04-07T20:16:30.269Z,31.93
2018-04-07T20:18:57.742Z,33.50
2018-04-07T20:21:25.913Z,36.73
2018-04-07T20:23:54.087Z,37.60
2018-04-07T20:26:22.299Z,36.20
2018-04-07T20:28:50.490Z,36.23
2018-04-07T20:31:17.952Z,38.20
2018-04-07T20:33:45.372Z,36.70
2018-04-07T20:36:12.781Z,34.43
2018-04-07T20:38:40.213Z,49.63
2018-04-07T20:41:07.656Z,49.00
2018-04-07T20:43:35.112Z,38.73
2018-04-07T20:46:02.584Z,36.17
2018-04-07T20:48:29.997Z,36.73
2018-04-07T20:50:57.458Z,39.87
2018-04-07T20:53:24.982Z,39.93
2018-04-07T20:55:52.416Z,30.10
2018-04-07T20:58:19.927Z,32.73
2018-04-07T21:00:47.346Z,34.93
2018-04-07T21:03:16.474Z,32.20
2018-04-07T21:05:44.677Z,35.53
2018-04-07T21:08:12.095Z,38.60
2018-04-07T21:10:39.518Z,37.37
2018-04-07T21:13:06.948Z,36.20
2018-04-07T21:15:34.376Z,37.53
2018-04-07T21:18:01.824Z,34.57
2018-04-07T21:20:29.260Z,35.10
2018-04-07T21:22:57.445Z,41.70
2018-04-07T21:25:25.638Z,44.00
2018-04-07T21:27:53.858Z,43.70
2018-04-07T21:30:21.347Z,52.83
2018-04-07T21:32:49.614Z,56.83
2018-04-07T21:35:17.046Z,59.30
2018-04-07T21:37:46.171Z,54.53
2018-04-07T21:40:14.411Z,60.83
2018-04-07T21:42:41.948Z,51.17
2018-04-07T21:45:09.353Z,43.57
2018-04-07T21:47:36.792Z,46.50
2018-04-07T21:50:04.246Z,56.63
2018-04-07T21:52:31.698Z,47.63
2018-04-07T21:54:59.866Z,53.13
2018-04-07T21:57:28.163Z,58.97
2018-04-07T21:59:55.602Z,57.27
2018-04-07T22:02:24.686Z,41.83
2018-04-07T22:04:52.120Z,48.20
2018-04-07T22:07:20.322Z,38.77
2018-04-07T22:09:47.756Z,41.17
2018-04-07T22:12:16.876Z,49.53
2018-04-07T22:14:45.070Z,47.30
2018-04-07T22:17:12.565Z,43.43
2018-04-07T22:19:39.966Z,45.67
2018-04-07T22:22:07.438Z,42.63
2018-04-07T22:24:34.867Z,55.87
2018-04-07T22:27:02.347Z,48.40
2018-04-07T22:29:29.861Z,49.88
2018-04-07T22:31:57.282Z,55.57
2018-04-07T22:34:24.710Z,47.73
2018-04-07T22:36:52.898Z,40.10
2018-04-07T22:39:21.090Z,41.97
2018-04-07T22:41:48.513Z,49.47
2018-04-07T22:44:16.592Z,42.73
2018-04-07T22:46:44.006Z,45.50
2018-04-07T22:49:11.428Z,50.37
2018-04-07T22:51:38.898Z,43.03
2018-04-07T22:54:06.314Z,46.57
2018-04-07T22:56:34.502Z,43.50
2018-04-07T22:59:02.878Z,45.33
2018-04-07T23:01:30.306Z,48.50
2018-04-07T23:03:57.728Z,50.53
2018-04-07T23:06:25.147Z,51.73
2018-04-07T23:08:52.688Z,41.50
2018-04-07T23:11:20.118Z,48.30
2018-04-07T23:13:48.707Z,44.40
2018-04-07T23:16:17.826Z,40.47
2018-04-07T23:18:46.019Z,41.20
2018-04-07T23:21:14.209Z,41.43
2018-04-07T23:23:42.393Z,43.23
2018-04-07T23:26:09.814Z,42.93
2018-04-07T23:28:37.229Z,38.20
2018-04-07T23:31:04.661Z,41.33
2018-04-07T23:33:32.083Z,38.40
2018-04-07T23:35:59.517Z,44.23
2018-04-07T23:38:27.705Z,45.27
2018-04-07T23:40:55.901Z,40.30
2018-04-07T23:43:24.067Z,37.33
2018-04-07T23:45:52.263Z,36.57
2018-04-07T23:48:20.467Z,36.80
2018-04-07T23:50:49.358Z,38.85
2018-04-07T23:53:18.467Z,43.57
2018-04-07T23:55:46.665Z,37.40
2018-04-07T23:58:14.082Z,35.00
